This is the latest recevied weather packets stored in our database for station/object DL1AIE-13. If no packets are shown the sender has not sent any weather packets the latest 10 day(s).
| Time | Temp. | Humidity | Pressure | Rain* | Wind** | Luminosity | Snow |
|---|---|---|---|---|---|---|---|
| 1777684347 | 8.89° C | 78% | 1023.5 hPa | 0 mm | - | - | - |
| 1777683743 | 8.89° C | 78% | 1023.7 hPa | 0 mm | - | - | - |
| 1777683140 | 9.44° C | 76% | 1023.7 hPa | 0 mm | - | - | - |
| 1777682536 | 8.89° C | 79% | 1023.9 hPa | 0 mm | - | - | - |
| 1777681953 | 8.89° C | 79% | 1024 hPa | 0 mm | - | - | - |
| 1777681349 | 8.89° C | 79% | 1023.9 hPa | 0 mm | - | - | - |
| 1777680745 | 8.89° C | 79% | 1024 hPa | 0 mm | - | - | - |
| 1777680141 | 8.89° C | 79% | 1024 hPa | 0 mm | - | - | - |
| 1777679537 | 8.89° C | 79% | 1024.1 hPa | 0 mm | - | - | - |
| 1777678954 | 9.44° C | 78% | 1024.2 hPa | 0 mm | - | - | - |
| 1777678350 | 8.89° C | 81% | 1024.2 hPa | 0 mm | - | - | - |
| 1777677746 | 8.89° C | 82% | 1024.3 hPa | 0 mm | - | - | - |
| 1777677146 | 8.89° C | 81% | 1024.2 hPa | 0 mm | - | - | - |
| 1777676539 | 9.44° C | 78% | 1024.2 hPa | 0 mm | - | - | - |
| 1777675956 | 9.44° C | 78% | 1024.4 hPa | 0 mm | - | - | - |
| 1777675352 | 10.56° C | 75% | 1024.3 hPa | 0 mm | - | - | - |
| 1777674749 | 10° C | 75% | 1024.3 hPa | 0 mm | - | - | - |
| 1777674145 | 10.56° C | 73% | 1024.3 hPa | 0 mm | - | - | - |
| 1777673541 | 11.11° C | 71% | 1024.3 hPa | 0 mm | - | - | - |
| 1777672941 | 11.67° C | 70% | 1024.2 hPa | 0 mm | - | - | - |
| 1777672354 | 12.22° C | 67% | 1024.2 hPa | 0 mm | - | - | - |
| 1777671750 | 12.22° C | 66% | 1024.3 hPa | 0 mm | - | - | - |
| 1777671147 | 12.78° C | 65% | 1024.1 hPa | 0 mm | - | - | - |
| 1777670546 | 12.78° C | 64% | 1024.2 hPa | 0 mm | - | - | - |
| 1777669939 | 12.78° C | 65% | 1024.2 hPa | 0 mm | - | - | - |
* Rain latest hour (hover to see other rain measurements)
** Current wind speed in m/s (hover to see current wind gust speed)